Time;durP1;ratioP1;P1;durP2;ratioP2;P2;SDS_P1;SDS_P2;PMS_P1;PMS_P2;Temp;Humidity;BMP_temperature;BMP_pressure;BME280_temperature;BME280_humidity;BME280_pressure;Samples;Min_cycle;Max_cycle;Signal;HPM_P1;HPM_P2
2022/06/19 00:02:18;;;;;;;11.65;2.83;;;;;;;;;;5101472;28;20045;-66
2022/06/19 00:04:45;;;;;;;6.13;2.50;;;;;;;;;;5097478;28;20035;-66
2022/06/19 00:07:11;;;;;;;5.95;2.55;;;;;;;;;;5090010;28;20043;-66
2022/06/19 00:09:38;;;;;;;8.57;3.00;;;;;;;;;;5088187;28;20518;-66
2022/06/19 00:12:04;;;;;;;6.90;2.60;;;;;;;;;;5082675;28;20040;-66
2022/06/19 00:14:33;;;;;;;11.02;3.50;;;;;;;;;;5078959;28;20046;-66
2022/06/19 00:17:00;;;;;;;10.48;2.47;;;;;;;;;;5103531;28;20284;-67
2022/06/19 00:19:26;;;;;;;7.72;2.40;;;;;;;;;;5088246;28;20047;-64
2022/06/19 00:21:52;;;;;;;11.05;3.38;;;;;;;;;;5086828;28;20097;-65
2022/06/19 00:24:18;;;;;;;8.93;3.03;;;;;;;;;;5090617;28;20134;-64
2022/06/19 00:26:44;;;;;;;7.47;3.35;;;;;;;;;;5077957;28;20039;-64
2022/06/19 00:29:10;;;;;;;7.05;3.22;;;;;;;;;;5090391;28;20437;-64
2022/06/19 00:31:36;;;;;;;6.97;2.00;;;;;;;;;;5097742;28;20039;-64
2022/06/19 00:34:03;;;;;;;11.02;3.03;;;;;;;;;;5077390;28;20405;-64
2022/06/19 00:36:30;;;;;;;14.38;3.75;;;;;;;;;;5093333;28;20043;-65
2022/06/19 00:38:56;;;;;;;8.57;2.95;;;;;;;;;;5098281;28;20036;-65
2022/06/19 00:41:23;;;;;;;10.63;3.13;;;;;;;;;;5090857;28;20051;-64
2022/06/19 00:43:52;;;;;;;8.25;3.42;;;;;;;;;;5090695;28;20172;-64
2022/06/19 00:46:37;;;;;;;6.35;2.67;;;;;;;;;;5093859;28;20044;-64
2022/06/19 00:49:04;;;;;;;10.38;4.47;;;;;;;;;;5091098;28;20120;-65
2022/06/19 00:51:30;;;;;;;9.60;2.92;;;;;;;;;;5094939;28;20069;-64
2022/06/19 00:53:57;;;;;;;7.55;3.42;;;;;;;;;;5070870;28;20080;-65
2022/06/19 00:56:25;;;;;;;7.43;3.65;;;;;;;;;;5091173;28;20083;-64
2022/06/19 00:58:52;;;;;;;14.18;4.05;;;;;;;;;;5071350;28;20052;-67
2022/06/19 01:01:21;;;;;;;12.73;3.92;;;;;;;;;;5096715;28;20057;-66
2022/06/19 01:04:05;;;;;;;10.70;3.15;;;;;;;;;;5087315;28;20044;-67
2022/06/19 01:06:31;;;;;;;8.82;3.53;;;;;;;;;;5088274;28;20043;-67
2022/06/19 01:08:58;;;;;;;5.57;3.05;;;;;;;;;;5090039;28;20091;-66
2022/06/19 01:11:26;;;;;;;10.00;3.80;;;;;;;;;;5088400;28;20037;-66
2022/06/19 01:13:53;;;;;;;8.90;3.28;;;;;;;;;;5080262;28;20040;-67
2022/06/19 01:16:19;;;;;;;12.20;4.50;;;;;;;;;;5096344;28;20182;-66
2022/06/19 01:18:45;;;;;;;8.48;3.53;;;;;;;;;;5098010;28;20511;-66
2022/06/19 01:21:11;;;;;;;22.60;5.15;;;;;;;;;;5094075;28;20504;-67
2022/06/19 01:23:53;;;;;;;7.53;3.28;;;;;;;;;;5084399;28;20036;-66
2022/06/19 01:26:20;;;;;;;9.23;3.58;;;;;;;;;;5088058;28;20039;-67
2022/06/19 01:28:54;;;;;;;16.80;3.22;;;;;;;;;;5085680;28;20549;-66
2022/06/19 01:31:21;;;;;;;10.45;3.45;;;;;;;;;;5093802;28;20051;-66
2022/06/19 01:33:49;;;;;;;8.60;3.33;;;;;;;;;;5094557;28;20036;-67
2022/06/19 01:36:18;;;;;;;15.55;3.40;;;;;;;;;;5079817;28;20086;-66
2022/06/19 01:38:48;;;;;;;11.80;3.72;;;;;;;;;;5086327;28;20040;-67
2022/06/19 01:41:15;;;;;;;14.73;4.15;;;;;;;;;;5087552;28;20039;-67
2022/06/19 01:43:42;;;;;;;13.85;3.92;;;;;;;;;;5095930;28;20085;-66
2022/06/19 01:46:08;;;;;;;11.13;2.95;;;;;;;;;;5093486;28;20048;-67
2022/06/19 01:48:35;;;;;;;9.80;3.47;;;;;;;;;;5079639;28;20122;-66
2022/06/19 01:51:06;;;;;;;11.38;3.30;;;;;;;;;;5078903;28;20102;-65
2022/06/19 01:53:38;;;;;;;13.45;3.88;;;;;;;;;;5099829;28;20044;-64
2022/06/19 01:56:08;;;;;;;12.95;3.47;;;;;;;;;;5097614;28;20079;-65
2022/06/19 01:58:35;;;;;;;11.30;2.75;;;;;;;;;;5089972;28;20035;-64
2022/06/19 02:01:04;;;;;;;8.35;3.63;;;;;;;;;;5085284;28;20036;-64
2022/06/19 02:03:35;;;;;;;9.70;3.28;;;;;;;;;;5084711;28;20039;-64
2022/06/19 02:06:01;;;;;;;11.73;2.83;;;;;;;;;;5089439;28;20040;-64
2022/06/19 02:08:28;;;;;;;6.25;3.25;;;;;;;;;;5082670;28;20524;-64
2022/06/19 02:10:55;;;;;;;18.67;4.13;;;;;;;;;;5080977;28;20463;-65
2022/06/19 02:13:23;;;;;;;10.93;4.22;;;;;;;;;;5091598;28;20039;-65
2022/06/19 02:15:50;;;;;;;9.10;3.08;;;;;;;;;;5084249;28;20042;-64
2022/06/19 02:18:22;;;;;;;14.07;3.28;;;;;;;;;;5089137;28;20044;-64
2022/06/19 02:20:50;;;;;;;9.60;3.25;;;;;;;;;;5093838;28;20493;-64
2022/06/19 02:23:19;;;;;;;10.90;3.70;;;;;;;;;;5080119;28;20051;-64
2022/06/19 02:25:45;;;;;;;11.95;3.95;;;;;;;;;;5080725;28;20037;-64
2022/06/19 02:28:11;;;;;;;11.10;4.10;;;;;;;;;;5096944;28;20504;-64
2022/06/19 02:30:37;;;;;;;10.30;3.30;;;;;;;;;;5095166;28;20482;-64
2022/06/19 02:33:05;;;;;;;18.50;4.40;;;;;;;;;;5089875;28;20425;-64
2022/06/19 02:35:31;;;;;;;20.08;4.03;;;;;;;;;;5085448;28;20075;-64
2022/06/19 02:37:57;;;;;;;11.00;3.90;;;;;;;;;;5087788;28;20055;-65
2022/06/19 02:40:26;;;;;;;9.90;3.63;;;;;;;;;;5099319;28;20036;-64
2022/06/19 02:42:53;;;;;;;16.30;4.57;;;;;;;;;;5096265;28;20036;-64
2022/06/19 02:45:23;;;;;;;10.07;3.45;;;;;;;;;;5091897;28;20035;-65
2022/06/19 02:47:51;;;;;;;8.23;3.22;;;;;;;;;;5071876;28;20641;-64
2022/06/19 02:50:19;;;;;;;19.23;4.25;;;;;;;;;;5079391;28;20502;-64
2022/06/19 02:52:45;;;;;;;13.88;4.55;;;;;;;;;;5083422;28;20477;-65
2022/06/19 02:55:11;;;;;;;12.32;3.60;;;;;;;;;;5097878;28;20560;-64
2022/06/19 02:57:38;;;;;;;13.98;4.70;;;;;;;;;;5084859;28;20036;-64
2022/06/19 03:00:06;;;;;;;10.93;4.15;;;;;;;;;;5095332;28;20043;-65
2022/06/19 03:02:32;;;;;;;14.20;4.20;;;;;;;;;;5074108;28;20056;-64
2022/06/19 03:05:00;;;;;;;12.18;4.22;;;;;;;;;;5089358;28;20070;-64
2022/06/19 03:07:29;;;;;;;9.32;3.28;;;;;;;;;;5088535;28;20036;-64
2022/06/19 03:09:55;;;;;;;10.10;3.67;;;;;;;;;;5095749;28;20040;-64
2022/06/19 03:12:22;;;;;;;13.68;4.22;;;;;;;;;;5087308;28;20039;-64
2022/06/19 03:14:49;;;;;;;19.55;4.95;;;;;;;;;;5078263;28;20048;-64
2022/06/19 03:17:16;;;;;;;11.75;4.35;;;;;;;;;;5073604;28;20047;-64
2022/06/19 03:19:42;;;;;;;14.35;4.57;;;;;;;;;;5087254;28;20036;-64
2022/06/19 03:22:09;;;;;;;18.52;4.75;;;;;;;;;;5091534;28;20040;-64
2022/06/19 03:24:35;;;;;;;13.90;5.50;;;;;;;;;;5090786;28;20036;-64
2022/06/19 03:27:01;;;;;;;19.25;4.82;;;;;;;;;;5081466;28;20044;-64
2022/06/19 03:29:27;;;;;;;19.75;4.38;;;;;;;;;;5086622;28;20460;-64
2022/06/19 03:31:53;;;;;;;11.50;3.63;;;;;;;;;;5102416;28;20043;-64
2022/06/19 03:34:19;;;;;;;19.58;5.13;;;;;;;;;;5082590;28;20049;-64
2022/06/19 03:36:45;;;;;;;14.15;3.70;;;;;;;;;;5092925;28;20031;-64
2022/06/19 03:39:11;;;;;;;8.20;3.83;;;;;;;;;;5092180;28;20537;-64
2022/06/19 03:41:38;;;;;;;12.52;3.20;;;;;;;;;;5086940;28;20031;-64
2022/06/19 03:44:05;;;;;;;7.75;3.78;;;;;;;;;;5093760;28;20575;-64
2022/06/19 03:46:31;;;;;;;10.85;3.30;;;;;;;;;;5101340;28;20125;-64
2022/06/19 03:48:57;;;;;;;13.70;3.72;;;;;;;;;;5096493;28;20040;-64
2022/06/19 03:51:23;;;;;;;14.90;4.05;;;;;;;;;;5069366;28;20044;-64
2022/06/19 03:53:51;;;;;;;8.43;3.35;;;;;;;;;;5089209;28;20079;-63
2022/06/19 03:56:19;;;;;;;9.35;4.18;;;;;;;;;;5098767;27;20549;-64
2022/06/19 03:58:45;;;;;;;14.18;3.42;;;;;;;;;;5088248;28;20198;-64
2022/06/19 04:01:13;;;;;;;12.02;3.75;;;;;;;;;;5095869;28;20063;-64
2022/06/19 04:03:40;;;;;;;9.23;3.45;;;;;;;;;;5079509;28;20040;-64
2022/06/19 04:06:06;;;;;;;12.02;4.03;;;;;;;;;;5088622;28;20040;-64
2022/06/19 04:08:32;;;;;;;14.18;4.18;;;;;;;;;;5078067;28;20043;-63
2022/06/19 04:10:59;;;;;;;13.60;4.53;;;;;;;;;;5099469;28;20397;-64
2022/06/19 04:13:25;;;;;;;6.75;2.83;;;;;;;;;;5094810;28;20035;-64
2022/06/19 04:15:51;;;;;;;8.30;3.08;;;;;;;;;;5079551;28;20051;-65
2022/06/19 04:18:18;;;;;;;8.60;2.95;;;;;;;;;;5083495;28;20032;-64
2022/06/19 04:20:44;;;;;;;6.78;2.50;;;;;;;;;;5101159;28;20040;-64
2022/06/19 04:23:11;;;;;;;8.50;3.42;;;;;;;;;;5089785;28;20104;-64
2022/06/19 04:25:37;;;;;;;6.70;3.17;;;;;;;;;;5094916;28;20047;-64
2022/06/19 04:28:04;;;;;;;7.28;2.95;;;;;;;;;;5089690;28;20036;-64
2022/06/19 04:30:30;;;;;;;9.63;3.50;;;;;;;;;;5096221;28;20593;-64
2022/06/19 04:32:56;;;;;;;11.98;3.28;;;;;;;;;;5089971;28;20075;-64
2022/06/19 04:35:22;;;;;;;7.57;3.47;;;;;;;;;;5081577;28;20044;-64
2022/06/19 04:37:48;;;;;;;6.65;3.05;;;;;;;;;;5076639;28;20418;-64
2022/06/19 04:40:15;;;;;;;6.63;2.75;;;;;;;;;;5084876;28;20070;-64
2022/06/19 04:42:41;;;;;;;7.80;2.55;;;;;;;;;;5060656;28;20040;-64
2022/06/19 04:45:07;;;;;;;6.82;2.85;;;;;;;;;;5083915;28;20118;-64
2022/06/19 04:47:33;;;;;;;10.05;2.15;;;;;;;;;;5080878;28;20575;-64
2022/06/19 04:50:00;;;;;;;8.40;2.13;;;;;;;;;;5097073;28;20040;-64
2022/06/19 04:52:26;;;;;;;9.25;1.98;;;;;;;;;;5079580;28;20566;-64
2022/06/19 04:54:52;;;;;;;12.35;2.95;;;;;;;;;;5090716;28;20271;-64
2022/06/19 04:57:18;;;;;;;7.53;2.90;;;;;;;;;;5086114;28;20494;-64
2022/06/19 04:59:44;;;;;;;11.85;4.68;;;;;;;;;;5073915;28;20323;-64
2022/06/19 05:02:13;;;;;;;13.50;3.47;;;;;;;;;;5100887;28;20109;-64
2022/06/19 05:04:40;;;;;;;16.60;4.03;;;;;;;;;;5094359;28;20036;-64
2022/06/19 05:07:07;;;;;;;11.63;3.22;;;;;;;;;;5088376;28;20107;-65
2022/06/19 05:09:33;;;;;;;11.68;3.55;;;;;;;;;;5075895;28;20045;-65
2022/06/19 05:11:59;;;;;;;10.90;3.25;;;;;;;;;;5103412;28;20047;-65
2022/06/19 05:14:25;;;;;;;10.10;3.00;;;;;;;;;;5095826;28;20050;-64
2022/06/19 05:16:52;;;;;;;10.13;2.53;;;;;;;;;;5097092;28;20042;-64
2022/06/19 05:19:18;;;;;;;8.90;3.33;;;;;;;;;;5092752;28;20072;-65
2022/06/19 05:21:45;;;;;;;21.95;5.63;;;;;;;;;;5079061;28;20056;-65
2022/06/19 05:24:11;;;;;;;9.50;2.92;;;;;;;;;;5082111;28;20040;-65
2022/06/19 05:26:37;;;;;;;11.18;3.15;;;;;;;;;;5084035;28;20561;-65
2022/06/19 05:29:04;;;;;;;8.48;3.70;;;;;;;;;;5080624;28;20119;-65
2022/06/19 05:31:30;;;;;;;9.73;2.80;;;;;;;;;;5104766;28;20482;-64
2022/06/19 05:33:57;;;;;;;7.85;3.58;;;;;;;;;;5099006;28;20051;-64
2022/06/19 05:36:26;;;;;;;11.35;2.95;;;;;;;;;;5092869;28;20229;-64
2022/06/19 05:38:52;;;;;;;13.73;4.07;;;;;;;;;;5080930;28;20098;-64
2022/06/19 05:41:18;;;;;;;7.70;1.98;;;;;;;;;;5085730;28;20064;-65
2022/06/19 05:43:47;;;;;;;10.85;3.58;;;;;;;;;;5091768;28;20509;-64
2022/06/19 05:46:15;;;;;;;9.23;3.30;;;;;;;;;;5093581;28;20497;-64
2022/06/19 05:48:42;;;;;;;8.43;2.45;;;;;;;;;;5097260;28;20561;-65
2022/06/19 05:51:16;;;;;;;9.02;2.85;;;;;;;;;;5088756;28;20047;-65
2022/06/19 05:53:46;;;;;;;9.27;3.00;;;;;;;;;;5104172;28;20040;-64
2022/06/19 05:56:12;;;;;;;6.25;2.17;;;;;;;;;;5083220;28;20436;-65
2022/06/19 05:58:39;;;;;;;8.95;3.55;;;;;;;;;;5086208;28;20036;-64
2022/06/19 06:01:05;;;;;;;7.45;2.40;;;;;;;;;;5091542;28;20114;-65
2022/06/19 06:03:32;;;;;;;6.20;2.92;;;;;;;;;;5082050;28;20167;-64
2022/06/19 06:06:02;;;;;;;9.75;2.50;;;;;;;;;;5090422;28;20036;-64
2022/06/19 06:08:29;;;;;;;10.23;4.60;;;;;;;;;;5097618;28;20035;-65
2022/06/19 06:10:55;;;;;;;13.27;3.45;;;;;;;;;;5086371;28;20043;-64
2022/06/19 06:13:21;;;;;;;6.90;2.90;;;;;;;;;;5086569;28;20036;-65
2022/06/19 06:15:48;;;;;;;7.10;2.20;;;;;;;;;;5075863;28;20398;-65
2022/06/19 06:18:14;;;;;;;9.18;3.58;;;;;;;;;;5093232;28;20093;-65
2022/06/19 06:20:40;;;;;;;6.57;1.85;;;;;;;;;;5091376;28;20040;-65
2022/06/19 06:23:06;;;;;;;6.85;1.83;;;;;;;;;;5093268;28;20045;-65
2022/06/19 06:25:34;;;;;;;11.73;2.50;;;;;;;;;;5084066;28;20046;-65
2022/06/19 06:28:00;;;;;;;6.80;2.38;;;;;;;;;;5084618;28;20119;-65
2022/06/19 06:30:27;;;;;;;12.65;3.30;;;;;;;;;;5096791;28;20405;-65
2022/06/19 06:32:53;;;;;;;7.53;2.60;;;;;;;;;;5088215;28;20548;-64
2022/06/19 06:35:19;;;;;;;7.32;3.42;;;;;;;;;;5073639;28;20048;-64
2022/06/19 06:37:45;;;;;;;10.18;3.03;;;;;;;;;;5101193;28;20118;-64
2022/06/19 06:40:11;;;;;;;7.90;2.20;;;;;;;;;;5096998;28;20032;-65
2022/06/19 06:42:38;;;;;;;10.23;2.72;;;;;;;;;;5080473;28;20030;-65
2022/06/19 06:45:04;;;;;;;8.80;2.88;;;;;;;;;;5090996;28;20121;-65
2022/06/19 06:47:30;;;;;;;8.55;2.38;;;;;;;;;;5078231;28;20040;-65
2022/06/19 06:49:56;;;;;;;5.75;2.05;;;;;;;;;;5095123;28;20047;-65
2022/06/19 06:52:23;;;;;;;10.68;2.63;;;;;;;;;;5085462;28;20043;-65
2022/06/19 06:54:49;;;;;;;5.65;2.17;;;;;;;;;;5092296;28;20070;-65
2022/06/19 06:57:15;;;;;;;7.20;2.42;;;;;;;;;;5080413;28;20085;-65
2022/06/19 06:59:41;;;;;;;6.32;2.22;;;;;;;;;;5074573;28;20045;-65
2022/06/19 07:02:07;;;;;;;5.72;1.77;;;;;;;;;;5097271;28;20031;-65
2022/06/19 07:04:33;;;;;;;11.32;2.65;;;;;;;;;;5092686;28;20036;-65
2022/06/19 07:06:59;;;;;;;8.77;2.22;;;;;;;;;;5091133;28;20489;-64
2022/06/19 07:09:25;;;;;;;8.60;2.35;;;;;;;;;;5077143;28;20119;-65
2022/06/19 07:11:51;;;;;;;7.45;2.58;;;;;;;;;;5095993;28;20474;-65
2022/06/19 07:14:19;;;;;;;15.00;2.92;;;;;;;;;;5084796;28;20036;-65
2022/06/19 07:16:45;;;;;;;4.95;2.00;;;;;;;;;;5089171;28;20088;-65
2022/06/19 07:19:11;;;;;;;8.45;2.45;;;;;;;;;;5082632;28;20401;-65
2022/06/19 07:21:37;;;;;;;8.13;2.70;;;;;;;;;;5082521;28;20036;-65
2022/06/19 07:24:04;;;;;;;6.35;2.20;;;;;;;;;;5085689;28;20047;-65
2022/06/19 07:26:30;;;;;;;7.20;2.10;;;;;;;;;;5091923;28;20079;-65
2022/06/19 07:28:57;;;;;;;11.88;2.25;;;;;;;;;;5079813;28;20575;-65
2022/06/19 07:31:23;;;;;;;4.25;2.10;;;;;;;;;;5079919;28;20040;-65
2022/06/19 07:33:49;;;;;;;7.05;2.60;;;;;;;;;;5102026;28;20041;-65
2022/06/19 07:36:17;;;;;;;15.07;2.35;;;;;;;;;;5094066;28;20040;-66
2022/06/19 07:38:43;;;;;;;6.45;2.47;;;;;;;;;;5090058;28;20032;-65
2022/06/19 07:41:10;;;;;;;4.07;1.73;;;;;;;;;;5091496;28;20059;-65
2022/06/19 07:43:36;;;;;;;5.72;1.85;;;;;;;;;;5083765;28;20039;-65
2022/06/19 07:46:02;;;;;;;5.68;1.73;;;;;;;;;;5075108;28;20075;-65
2022/06/19 07:51:14;;;;;;;7.20;1.65;;;;;;;;;;5094248;28;20039;-65
2022/06/19 07:53:40;;;;;;;7.88;2.25;;;;;;;;;;5074487;28;20047;-67
2022/06/19 07:56:08;;;;;;;9.02;3.67;;;;;;;;;;5102550;28;20184;-68
2022/06/19 07:58:35;;;;;;;5.55;2.00;;;;;;;;;;5088673;28;20044;-67
2022/06/19 08:01:01;;;;;;;6.18;2.17;;;;;;;;;;5094675;28;20443;-68
2022/06/19 08:03:28;;;;;;;14.02;2.53;;;;;;;;;;5079609;28;20035;-67
2022/06/19 08:05:54;;;;;;;4.88;1.80;;;;;;;;;;5100415;28;20118;-67
2022/06/19 08:08:24;;;;;;;10.23;2.22;;;;;;;;;;5082949;28;20096;-67
2022/06/19 08:10:51;;;;;;;8.45;1.58;;;;;;;;;;5101074;28;20511;-67
2022/06/19 08:13:20;;;;;;;4.40;1.90;;;;;;;;;;5091173;28;20057;-67
2022/06/19 08:15:47;;;;;;;5.97;1.77;;;;;;;;;;5093034;28;20068;-67
2022/06/19 08:18:14;;;;;;;6.20;2.58;;;;;;;;;;5088339;28;20089;-65
2022/06/19 08:20:40;;;;;;;4.85;1.80;;;;;;;;;;5099069;28;20474;-65
2022/06/19 08:23:06;;;;;;;3.10;1.60;;;;;;;;;;5100669;28;20035;-65
2022/06/19 08:25:33;;;;;;;7.78;1.90;;;;;;;;;;5098701;28;20114;-65
2022/06/19 08:28:00;;;;;;;6.40;2.03;;;;;;;;;;5093919;28;20085;-65
2022/06/19 08:30:34;;;;;;;4.72;1.80;;;;;;;;;;5098570;28;20440;-65
2022/06/19 08:33:01;;;;;;;8.05;2.17;;;;;;;;;;5082852;28;20119;-64
2022/06/19 08:35:27;;;;;;;4.75;1.70;;;;;;;;;;5080995;28;20044;-65
2022/06/19 08:37:55;;;;;;;6.95;1.90;;;;;;;;;;5093401;28;20040;-65
2022/06/19 08:40:45;;;;;;;7.97;2.88;;;;;;;;;;5103028;28;20036;-65
2022/06/19 08:43:17;;;;;;;5.95;2.22;;;;;;;;;;5066735;28;20051;-65
2022/06/19 08:45:43;;;;;;;5.63;1.30;;;;;;;;;;5079473;28;20040;-65
2022/06/19 08:48:15;;;;;;;5.28;1.73;;;;;;;;;;5076341;28;20034;-65
2022/06/19 08:50:51;;;;;;;4.18;1.88;;;;;;;;;;5083604;28;20039;-64
2022/06/19 08:53:26;;;;;;;3.50;1.35;;;;;;;;;;5084399;28;20055;-65
2022/06/19 08:55:59;;;;;;;5.63;1.70;;;;;;;;;;5091115;28;20059;-65
2022/06/19 08:58:48;;;;;;;5.88;2.80;;;;;;;;;;5078778;28;20036;-65
2022/06/19 09:01:15;;;;;;;8.30;2.33;;;;;;;;;;5095254;28;20038;-65
2022/06/19 09:06:35;;;;;;;5.13;1.90;;;;;;;;;;5088939;28;20050;-65
2022/06/19 09:09:07;;;;;;;4.82;1.42;;;;;;;;;;5089032;28;20101;-65
2022/06/19 09:11:59;;;;;;;4.15;1.52;;;;;;;;;;5079794;28;20097;-65
2022/06/19 09:14:39;;;;;;;7.60;2.08;;;;;;;;;;5088397;28;20540;-65
2022/06/19 09:17:12;;;;;;;2.65;1.10;;;;;;;;;;5091136;28;20036;-64
2022/06/19 09:20:04;;;;;;;2.30;1.20;;;;;;;;;;5095721;28;20059;-65
2022/06/19 09:22:33;;;;;;;2.47;1.10;;;;;;;;;;5079903;28;20055;-65
2022/06/19 09:25:18;;;;;;;4.10;1.60;;;;;;;;;;5085564;28;20748;-65
2022/06/19 09:27:54;;;;;;;4.43;1.33;;;;;;;;;;5083870;28;20032;-64
2022/06/19 09:30:24;;;;;;;3.53;1.17;;;;;;;;;;5089980;28;20096;-65
2022/06/19 09:32:54;;;;;;;2.55;1.20;;;;;;;;;;5105182;28;20140;-66
2022/06/19 09:35:31;;;;;;;3.00;1.10;;;;;;;;;;5087683;28;20045;-65
2022/06/19 09:38:00;;;;;;;2.47;1.15;;;;;;;;;;5088882;28;20046;-65
2022/06/19 09:40:29;;;;;;;3.85;1.30;;;;;;;;;;5090731;28;20036;-65
2022/06/19 09:43:14;;;;;;;3.53;1.42;;;;;;;;;;5087094;28;20040;-65
2022/06/19 09:45:47;;;;;;;3.85;1.20;;;;;;;;;;5088558;28;20066;-65
2022/06/19 09:48:16;;;;;;;2.20;1.13;;;;;;;;;;5095947;28;20465;-65
2022/06/19 09:50:45;;;;;;;6.00;1.60;;;;;;;;;;5085498;28;20089;-65
2022/06/19 09:53:20;;;;;;;7.55;2.00;;;;;;;;;;5085815;28;20039;-65
2022/06/19 09:55:51;;;;;;;6.00;1.65;;;;;;;;;;5098466;28;20082;-65
2022/06/19 09:58:19;;;;;;;5.53;1.67;;;;;;;;;;5088325;28;20040;-65
2022/06/19 10:00:46;;;;;;;3.60;2.17;;;;;;;;;;5080846;28;20342;-65
2022/06/19 10:03:27;;;;;;;6.00;1.83;;;;;;;;;;5074013;28;20405;-65
2022/06/19 10:05:56;;;;;;;3.88;1.75;;;;;;;;;;5098266;28;20106;-65
2022/06/19 10:08:28;;;;;;;5.93;1.98;;;;;;;;;;5074866;28;20422;-65
2022/06/19 10:10:58;;;;;;;7.97;2.72;;;;;;;;;;5096851;28;20047;-65
2022/06/19 10:13:35;;;;;;;5.35;1.95;;;;;;;;;;5089375;28;20047;-65
2022/06/19 10:16:02;;;;;;;4.68;1.90;;;;;;;;;;5086823;28;20047;-65
2022/06/19 10:18:34;;;;;;;7.55;2.15;;;;;;;;;;5101583;28;20028;-65
2022/06/19 10:22:13;;;;;;;4.97;2.38;;;;;;;;;;5084344;28;20446;-65
2022/06/19 10:24:09;;;;;;;4.53;1.90;;;;;;;;;;5076291;28;20551;-65
2022/06/19 10:26:35;;;;;;;3.50;1.17;;;;;;;;;;5085204;28;20050;-65
2022/06/19 10:29:30;;;;;;;11.35;2.03;;;;;;;;;;5097916;28;20127;-65
2022/06/19 10:32:15;;;;;;;4.70;1.77;;;;;;;;;;5089447;28;20425;-65
2022/06/19 10:34:46;;;;;;;5.50;1.67;;;;;;;;;;5086070;28;20428;-65
2022/06/19 10:37:19;;;;;;;7.07;1.80;;;;;;;;;;5095998;28;20047;-65
2022/06/19 10:39:45;;;;;;;5.38;2.20;;;;;;;;;;5079945;28;20038;-66
2022/06/19 10:42:26;;;;;;;14.65;2.80;;;;;;;;;;5081975;28;20555;-66
2022/06/19 10:45:17;;;;;;;6.93;2.03;;;;;;;;;;5093715;28;20119;-66
2022/06/19 10:47:49;;;;;;;5.50;1.60;;;;;;;;;;5077185;28;20591;-66
2022/06/19 10:50:15;;;;;;;6.97;1.95;;;;;;;;;;5083216;28;20425;-66
2022/06/19 10:52:44;;;;;;;5.45;1.92;;;;;;;;;;5082318;28;20105;-66
2022/06/19 10:55:37;;;;;;;3.33;1.30;;;;;;;;;;5083113;28;20055;-66
2022/06/19 10:58:03;;;;;;;5.53;1.70;;;;;;;;;;5080439;28;20131;-66
2022/06/19 11:00:29;;;;;;;5.20;1.50;;;;;;;;;;5108160;28;20046;-65
2022/06/19 11:06:03;;;;;;;5.13;1.92;;;;;;;;;;5088156;28;20430;-66
2022/06/19 11:08:35;;;;;;;5.28;1.80;;;;;;;;;;5093392;28;20032;-66
2022/06/19 11:11:02;;;;;;;11.68;1.77;;;;;;;;;;5087981;28;20313;-66
2022/06/19 11:13:47;;;;;;;3.03;1.40;;;;;;;;;;5091465;28;20044;-65
2022/06/19 11:16:14;;;;;;;4.90;2.00;;;;;;;;;;5092602;28;20045;-66
2022/06/19 11:18:47;;;;;;;5.68;1.73;;;;;;;;;;5082321;28;20406;-66
2022/06/19 11:21:19;;;;;;;4.10;1.60;;;;;;;;;;5078302;28;20111;-66
2022/06/19 11:23:48;;;;;;;2.95;1.55;;;;;;;;;;5094115;28;20040;-66
2022/06/19 11:26:33;;;;;;;3.20;1.50;;;;;;;;;;5088371;28;20036;-65
2022/06/19 11:29:02;;;;;;;7.18;2.72;;;;;;;;;;5074857;28;20100;-65
2022/06/19 11:31:30;;;;;;;5.78;1.27;;;;;;;;;;5104441;28;20124;-66
2022/06/19 11:33:59;;;;;;;3.67;1.73;;;;;;;;;;5097842;28;20508;-66
2022/06/19 11:36:29;;;;;;;4.18;1.60;;;;;;;;;;5089338;28;20040;-66
2022/06/19 11:38:55;;;;;;;5.88;1.70;;;;;;;;;;5093638;28;20093;-66
2022/06/19 11:41:21;;;;;;;2.78;1.63;;;;;;;;;;5093467;28;20044;-66
2022/06/19 11:44:00;;;;;;;3.22;1.40;;;;;;;;;;5086437;28;20375;-66
2022/06/19 11:46:26;;;;;;;4.20;2.05;;;;;;;;;;5102954;28;20043;-66
2022/06/19 11:48:53;;;;;;;6.35;2.15;;;;;;;;;;5098789;28;20458;-66
2022/06/19 11:51:23;;;;;;;4.53;2.13;;;;;;;;;;5092212;28;20028;-67
2022/06/19 11:53:58;;;;;;;11.23;2.00;;;;;;;;;;5090295;28;20035;-66
2022/06/19 11:56:31;;;;;;;7.35;2.70;;;;;;;;;;5094471;28;20109;-66
2022/06/19 11:58:57;;;;;;;;;;;;;;;;;;5086568;28;20044;-65
2022/06/19 12:01:34;;;;;;;3.10;1.42;;;;;;;;;;5084789;28;20376;-66
2022/06/19 12:04:01;;;;;;;5.97;1.95;;;;;;;;;;5090112;28;20130;-66
2022/06/19 12:06:39;;;;;;;4.25;1.85;;;;;;;;;;5101234;28;20047;-65
2022/06/19 12:09:07;;;;;;;3.58;1.88;;;;;;;;;;5084661;28;20077;-66
2022/06/19 12:11:38;;;;;;;6.35;2.38;;;;;;;;;;5091642;28;20090;-66
2022/06/19 12:14:05;;;;;;;7.15;2.25;;;;;;;;;;5078255;28;20045;-65
2022/06/19 12:16:31;;;;;;;6.15;2.28;;;;;;;;;;5090398;28;20037;-66
2022/06/19 12:19:13;;;;;;;3.53;1.92;;;;;;;;;;5094894;28;20171;-65
2022/06/19 12:21:47;;;;;;;6.07;2.30;;;;;;;;;;5102608;28;20051;-66
2022/06/19 12:24:16;;;;;;;9.93;2.70;;;;;;;;;;5096530;28;20135;-66
2022/06/19 12:26:48;;;;;;;5.45;2.47;;;;;;;;;;5082848;28;20040;-65
2022/06/19 12:29:26;;;;;;;4.38;1.73;;;;;;;;;;5086069;28;20047;-66
2022/06/19 12:31:54;;;;;;;6.75;1.80;;;;;;;;;;5097268;28;20486;-66
2022/06/19 12:34:30;;;;;;;5.88;1.88;;;;;;;;;;5093131;28;20557;-65
2022/06/19 12:36:58;;;;;;;9.85;1.95;;;;;;;;;;5079587;28;20047;-66
2022/06/19 12:39:26;;;;;;;8.57;2.63;;;;;;;;;;5104109;27;20080;-65
2022/06/19 12:41:59;;;;;;;3.22;1.83;;;;;;;;;;5095046;28;20083;-66
2022/06/19 12:44:35;;;;;;;4.05;1.67;;;;;;;;;;5083202;28;20064;-66
2022/06/19 12:47:14;;;;;;;5.20;1.98;;;;;;;;;;5091836;28;20040;-66
2022/06/19 12:49:43;;;;;;;6.57;2.50;;;;;;;;;;5087814;28;20568;-66
2022/06/19 12:52:33;;;;;;;4.88;1.92;;;;;;;;;;5088189;28;20580;-65
2022/06/19 12:55:03;;;;;;;4.75;2.05;;;;;;;;;;5079752;28;20118;-66
2022/06/19 12:57:29;;;;;;;5.85;2.25;;;;;;;;;;5081776;28;20101;-66
2022/06/19 13:00:09;;;;;;;4.65;1.83;;;;;;;;;;5077641;28;20571;-66
2022/06/19 13:02:41;;;;;;;9.32;2.08;;;;;;;;;;5089651;28;20111;-66
2022/06/19 13:05:19;;;;;;;7.95;1.85;;;;;;;;;;5092168;28;20043;-66
2022/06/19 13:07:46;;;;;;;6.63;2.88;;;;;;;;;;5095716;28;20036;-66
2022/06/19 13:10:42;;;;;;;6.75;2.10;;;;;;;;;;5089996;28;20067;-66
2022/06/19 13:13:17;;;;;;;7.72;2.05;;;;;;;;;;5081186;28;20058;-66
2022/06/19 13:15:52;;;;;;;9.20;2.45;;;;;;;;;;5094786;28;20028;-66
2022/06/19 13:18:36;;;;;;;9.02;2.17;;;;;;;;;;5088610;28;20043;-65
2022/06/19 13:21:08;;;;;;;16.90;3.05;;;;;;;;;;5087763;28;20047;-65
2022/06/19 13:23:34;;;;;;;12.30;2.05;;;;;;;;;;5088616;28;20036;-65
2022/06/19 13:29:27;;;;;;;4.70;1.70;;;;;;;;;;5085512;28;20040;-66
2022/06/19 13:32:13;;;;;;;3.88;1.85;;;;;;;;;;5060304;28;20294;-66
2022/06/19 13:34:39;;;;;;;5.22;2.17;;;;;;;;;;5074630;28;20059;-65
2022/06/19 13:37:12;;;;;;;10.75;2.30;;;;;;;;;;5094965;28;20044;-66
2022/06/19 13:39:44;;;;;;;6.57;2.40;;;;;;;;;;5092913;28;20116;-66
2022/06/19 13:42:23;;;;;;;5.82;2.97;;;;;;;;;;5077797;28;20532;-66
2022/06/19 13:45:07;;;;;;;6.53;2.53;;;;;;;;;;5083453;28;20112;-66
2022/06/19 13:47:39;;;;;;;5.50;1.85;;;;;;;;;;5077747;28;20281;-66
2022/06/19 13:50:06;;;;;;;;;;;;;;;;;;5086504;28;20515;-66
2022/06/19 13:52:35;;;;;;;8.32;2.47;;;;;;;;;;5088239;28;19962;-67
2022/06/19 13:55:05;;;;;;;8.45;2.30;;;;;;;;;;5101254;28;20102;-66
2022/06/19 13:57:31;;;;;;;12.23;3.83;;;;;;;;;;5091827;28;20040;-66
2022/06/19 14:00:16;;;;;;;6.15;2.38;;;;;;;;;;5089442;28;20044;-66
2022/06/19 14:02:42;;;;;;;10.85;3.22;;;;;;;;;;5078726;28;20077;-67
2022/06/19 14:05:27;;;;;;;5.03;2.28;;;;;;;;;;5078148;28;20051;-66
2022/06/19 14:08:03;;;;;;;7.15;2.42;;;;;;;;;;5105834;28;20599;-66
2022/06/19 14:10:38;;;;;;;7.20;2.35;;;;;;;;;;5094323;28;20047;-66
2022/06/19 14:13:04;;;;;;;8.13;2.17;;;;;;;;;;5076505;28;20039;-66
2022/06/19 14:15:49;;;;;;;3.70;2.03;;;;;;;;;;5085793;28;20117;-66
2022/06/19 14:18:26;;;;;;;7.03;2.53;;;;;;;;;;5078556;28;20403;-66
2022/06/19 14:20:58;;;;;;;7.60;3.05;;;;;;;;;;5087016;28;20111;-66
2022/06/19 14:23:24;;;;;;;7.82;2.55;;;;;;;;;;5091526;28;20398;-66
2022/06/19 14:26:09;;;;;;;6.65;2.40;;;;;;;;;;5088935;28;20040;-66
2022/06/19 14:28:54;;;;;;;5.68;2.58;;;;;;;;;;5084445;28;20055;-65
2022/06/19 14:31:25;;;;;;;6.28;2.28;;;;;;;;;;5082942;28;20040;-66
2022/06/19 14:33:53;;;;;;;5.93;2.22;;;;;;;;;;5083875;28;20661;-66
2022/06/19 14:36:19;;;;;;;5.90;2.45;;;;;;;;;;5086935;28;20076;-67
2022/06/19 14:38:46;;;;;;;12.52;2.75;;;;;;;;;;5103188;28;20370;-66
2022/06/19 14:41:25;;;;;;;7.82;2.25;;;;;;;;;;5093505;28;20120;-67
2022/06/19 14:44:02;;;;;;;6.43;2.88;;;;;;;;;;5085669;28;20048;-65
2022/06/19 14:46:47;;;;;;;11.38;3.00;;;;;;;;;;5085882;28;20040;-66
2022/06/19 14:49:32;;;;;;;6.13;2.38;;;;;;;;;;5087530;28;20169;-66
2022/06/19 14:51:59;;;;;;;4.20;2.03;;;;;;;;;;5084458;28;20043;-65
2022/06/19 14:54:26;;;;;;;12.68;2.65;;;;;;;;;;5089926;28;20429;-66
2022/06/19 14:56:59;;;;;;;7.93;2.83;;;;;;;;;;5084337;28;20152;-65
2022/06/19 14:59:30;;;;;;;8.57;4.00;;;;;;;;;;5086984;28;20081;-66
2022/06/19 15:01:57;;;;;;;7.03;2.72;;;;;;;;;;5089226;28;20036;-66
2022/06/19 15:04:28;;;;;;;9.63;2.88;;;;;;;;;;5099678;28;20031;-66
2022/06/19 15:07:00;;;;;;;8.32;2.05;;;;;;;;;;5082001;28;20517;-66
2022/06/19 15:09:29;;;;;;;7.60;2.67;;;;;;;;;;5091140;28;20044;-66